Flight Track Log - Related Links

Times and Time Zones

All times are in EDT time to prevent confusion due to time zone crossing. See the ASA51 flight status page for this flight to view local times or setup timezone preferences in your user account.


Time Position Orientation Groundspeed Altitude Reporting Facility
EDT Latitude Longitude Course Direction KTS MPH feet Rate Location/Type
Mon 09:54:18 PM 61.3167 -150.1000 15° North 300 345 8,400  Level Anchorage Center
Mon 09:55:19 PM 61.4000 -150.0667 11° North 310 357 11,000 2,083 Climbing Anchorage Center
Mon 09:56:19 PM 61.4833 -150.0500 North 340 391 12,600 2,050 Climbing Anchorage Center
Mon 09:57:00 PM 61.8968 -150.3253 13° North  Level Estimated
Mon 09:57:19 PM 61.5833 -150.1000 347° North 380 437 15,100  Level Anchorage Center
Mon 09:58:00 PM 62.0172 -150.3813 11° North  Level Estimated
Mon 09:58:19 PM 61.6833 -150.1500 347° North 390 449 18,000  Level Anchorage Center
Mon 09:59:00 PM 62.1362 -150.3134 15° North  Level FlightAware Approximate
Mon 09:59:19 PM 61.8000 -150.2000 349° North 400 460 20,300  Level Anchorage Center
Mon 10:00:19 PM 61.9167 -150.2500 349° North 420 483 22,200 1,800 Climbing Anchorage Center
Mon 10:01:19 PM 62.0333 -150.3000 349° North 430 495 23,900 1,550 Climbing Anchorage Center
Mon 10:02:19 PM 62.1500 -150.3667 345° North 450 518 25,300 1,600 Climbing Anchorage Center
Mon 10:03:19 PM 62.2833 -150.4333 347° North 460 529 27,100 1,339 Climbing Anchorage Center
Mon 10:04:20 PM 62.4167 -150.4833 350° North 470 541 28,000 446 Climbing Anchorage Center
Mon 10:05:20 PM 62.5500 -150.5500 347° North 480 552 28,000  Level Anchorage Center
Mon 10:06:20 PM 62.6667 -150.6167 345° North 470 541 28,000  Level Anchorage Center
Mon 10:07:20 PM 62.8000 -150.6833 347° North 490 564 28,000  Level Anchorage Center
Mon 10:08:20 PM 62.9333 -150.7500 347° North 480 552 28,000  Level Anchorage Center
Mon 10:09:20 PM 63.0667 -150.8333 344° North 480 552 28,000  Level Anchorage Center
Mon 10:10:20 PM 63.2000 -150.9000 347° North 500 575 28,000  Level Anchorage Center
Mon 10:11:21 PM 63.3333 -150.9667 347° North 480 552 28,000  Level Anchorage Center
Mon 10:12:20 PM 63.4500 -151.0500 342° North 480 552 28,000  Level Anchorage Center
Mon 10:13:20 PM 63.5833 -151.1167 347° North 470 541 28,000  Level Anchorage Center
Mon 10:14:21 PM 63.7167 -151.2000 345° North 470 541 28,000  Level Anchorage Center
Mon 10:15:21 PM 63.8333 -151.2667 346° North 470 541 28,000  Level Anchorage Center
Mon 10:16:21 PM 63.9667 -151.3500 345° North 470 541 28,000  Level Anchorage Center
Mon 10:17:21 PM 64.0833 -151.4333 343° North 470 541 28,000  Level Anchorage Center
Mon 10:18:21 PM 64.2167 -151.5167 345° North 470 541 28,000  Level Anchorage Center
Mon 10:19:21 PM 64.3500 -151.5833 348° North 460 529 28,000  Level Anchorage Center
Mon 10:20:22 PM 64.4667 -151.6667 343° North 460 529 28,000  Level Anchorage Center
Mon 10:21:22 PM 64.6000 -151.7500 345° North 470 541 28,000  Level Anchorage Center
Mon 10:22:22 PM 64.7333 -151.8167 348° North 470 541 28,000  Level Anchorage Center
Mon 10:23:22 PM 64.8500 -151.9000 343° North 470 541 28,000  Level Anchorage Center
Mon 10:24:22 PM 64.9833 -151.9833 345° North 460 529 28,000  Level Anchorage Center
Mon 10:25:22 PM 65.1000 -152.0667 343° North 470 541 28,000  Level Anchorage Center
Mon 10:26:22 PM 65.2333 -152.1500 345° North 470 541 28,000  Level Anchorage Center
Mon 10:27:22 PM 65.3500 -152.2333 343° North 460 529 28,000  Level Anchorage Center
Mon 10:28:22 PM 65.4833 -152.3167 345° North 460 529 28,000  Level Anchorage Center
Mon 10:29:22 PM 65.6000 -152.4000 344° North 470 541 28,000  Level Anchorage Center
Mon 10:30:22 PM 65.7333 -152.4833 346° North 460 529 28,000  Level Anchorage Center
Mon 10:31:23 PM 65.8500 -152.5667 344° North 460 529 28,000  Level Anchorage Center
Mon 10:32:23 PM 65.9833 -152.6667 343° North 460 529 28,000  Level Anchorage Center
Mon 10:33:23 PM 66.1000 -152.7500 344° North 460 529 28,000  Level Anchorage Center
Mon 10:34:23 PM 66.2167 -152.8333 344° North 470 541 28,000  Level Anchorage Center
Mon 10:35:23 PM 66.3500 -152.9333 343° North 460 529 28,000  Level Anchorage Center
Mon 10:36:23 PM 66.4667 -153.0167 344° North 470 541 28,000  Level Anchorage Center
Mon 10:37:23 PM 66.6000 -153.1000 346° North 460 529 28,000  Level Anchorage Center
Mon 10:38:24 PM 66.7167 -153.2000 341° North 460 529 28,000  Level Anchorage Center
Mon 10:39:24 PM 66.8500 -153.3000 344° North 470 541 28,000  Level Anchorage Center
Mon 10:40:24 PM 66.9667 -153.3833 344° North 470 541 28,000 1,000 Level Anchorage Center
Mon 10:41:24 PM 67.0833 -153.4833 342° North 460 529 30,000 1,000 Climbing Anchorage Center
Mon 10:42:24 PM 67.2167 -153.5833 344° North 470 541 30,000  Level Anchorage Center
Mon 10:43:24 PM 67.3333 -153.6833 342° North 470 541 30,000  Level Anchorage Center
Mon 10:44:24 PM 67.4667 -153.7833 344° North 460 529 30,000  Level Anchorage Center
Mon 10:45:24 PM 67.5833 -153.8667 345° North 460 529 30,000  Level Anchorage Center
Mon 10:46:24 PM 67.7167 -153.9833 342° North 480 552 30,000  Level Anchorage Center
Mon 10:47:24 PM 67.8333 -154.0833 342° North 460 529 30,000  Level Anchorage Center
Mon 10:48:25 PM 67.9667 -154.1833 344° North 460 529 30,000  Level Anchorage Center
Mon 10:49:25 PM 68.0833 -154.2833 342° North 460 529 30,000  Level Anchorage Center
Mon 10:50:25 PM 68.2000 -154.4000 340° North 460 529 30,000  Level Anchorage Center
Mon 10:51:25 PM 68.3333 -154.5000 345° North 460 529 30,000  Level Anchorage Center
Mon 10:52:25 PM 68.4500 -154.5833 345° North 460 529 30,000  Level Anchorage Center
Mon 10:53:25 PM 68.5667 -154.7000 340° North 460 529 30,000  Level Anchorage Center
Mon 10:54:26 PM 68.7000 -154.8000 345° North 460 529 30,000  Level Anchorage Center
Mon 10:55:26 PM 68.8167 -154.9167 340° North 470 541 30,000  Level Anchorage Center
Mon 10:56:26 PM 68.9333 -155.0500 338° Northwest 470 541 30,000  Level Anchorage Center
Mon 10:57:26 PM 69.0667 -155.1500 345° North 470 541 30,000  Level Anchorage Center
Mon 10:58:26 PM 69.1833 -155.2667 340° North 470 541 30,000  Level Anchorage Center
Mon 10:59:26 PM 69.3167 -155.3833 343° North 470 541 30,000  Level Anchorage Center
Mon 11:00:26 PM 69.4333 -155.5000 341° North 470 541 30,000  Level Anchorage Center
Mon 11:01:26 PM 69.5500 -155.6167 341° North 470 541 30,000  Level Anchorage Center
Mon 11:02:26 PM 69.6833 -155.7500 341° North 470 541 30,000  Level Anchorage Center
Mon 11:03:26 PM 69.8167 -155.8667 343° North 460 529 30,000  Level Anchorage Center
Mon 11:04:26 PM 69.9333 -156.0000 339° North 470 541 30,000 -496 Level Anchorage Center
Mon 11:05:27 PM 70.0667 -156.1167 343° North 470 541 29,000 -1,686 Descending Anchorage Center
Mon 11:06:27 PM 70.1667 -156.2333 338° Northwest 480 552 26,600 -2,350 Descending Anchorage Center
Mon 11:07:27 PM 70.2833 -156.3667 339° North 450 518 24,300 -2,550 Descending Anchorage Center
Mon 11:08:27 PM 70.4000 -156.4833 341° North 410 472 21,500 -2,550 Descending Anchorage Center
Mon 11:09:27 PM 70.5000 -156.5833 342° North 400 460 19,200 -2,800 Descending Anchorage Center
Mon 11:10:27 PM 70.6000 -156.7000 339° North 370 426 15,900 -2,850 Descending Anchorage Center
Mon 11:11:27 PM 70.7000 -156.7833 345° North 350 403 13,500 -2,150 Descending Anchorage Center
Mon 11:12:27 PM 70.7833 -156.8833 338° Northwest 340 391 11,600 -1,587 Descending Anchorage Center
Mon 11:13:28 PM 70.8667 -156.9833 339° North 310 357 10,300 -942 Descending Anchorage Center
Mon 11:14:28 PM 70.9333 -157.0667 338° Northwest 260 299 9,700 -1,000 Descending Anchorage Center
Mon 11:15:28 PM 71.0000 -157.1333 342° North 260 299 8,300 -1,350 Descending Anchorage Center
Mon 11:16:28 PM 71.0667 -157.2167 338° Northwest 250 288 7,000 -1,350 Descending Anchorage Center
Mon 11:17:28 PM 71.1333 -157.2833 342° North 240 276 5,600 -1,100 Descending Anchorage Center
Mon 11:18:28 PM 71.2000 -157.3500 342° North 230 265 4,800 -950 Descending Anchorage Center
Mon 11:19:28 PM 71.2500 -157.3500 360° North 210 242 3,700 -1,067 Descending Anchorage Center
Mon 11:21:28 PM 71.2833 -157.0333 72° East 180 207 1,600 -928 Descending Anchorage Center
Mon 11:22:29 PM 71.2833 -156.9167 90° East 130 150 900 -689 Descending Anchorage Center
Mon 11:25:00 PM 71.2833 -156.7667 34° Northeast  Level FlightAware Approximate

Login

Don't have an account? Register now (free) for customized features, flight alerts, and more!